Tiempo atmosférico en la estación meteorológica de Motril, Puerto, Granada (3 m.)



Fecha
DESCASC
Temp. máxima en grados centígrados (hora)
DESCASC
Temp. mínima en grados centígrados (hora)
DESCASC
Temp. media en grados centígrados
DESCASC
Racha de viento máxima en m/sg (hora)
DESCASC
Velocidad máxima media en intervalos de 10 minutos(hora)
DESCASC
Precipitaciones diarias en mm
DESCASC
Precipitaciones de 00:00 a 06:00 en mm
DESCASC
Precipitaciones de 06:00 a 12:00 en mm
DESCASC
Precipitaciones de 12:00 a 18:00 en mm
DESCASC
Precipitaciones de 18:00 a 24:00 en mm
DESCASC
29-10-2020 -- (--) -- (--) -- 9.17 (15:20) 7.78 (15:20) 0 0 0 0 0
28-10-2020 -- (--) -- (--) -- 5.28 (11:20) 4.17 (11:20) 0 0 0 0 0
27-10-2020 -- (--) -- (--) -- 10.83 (02:10) 5 (02:50) 0 0 0 0 0
26-10-2020 -- (--) -- (--) -- 19.17 (13:10) 11.67 (13:00) 0.2 0 0 0.2 0
25-10-2020 -- (--) -- (--) -- 12.5 (19:40) 6.94 (19:10) 0 0 0 0 0
24-10-2020 -- (--) -- (--) -- 6.67 (02:40) 2.78 (01:00) 0 0 0 0 0
23-10-2020 -- (--) -- (--) -- 10 (17:30) 5.83 (18:10) 0 0 0 0 0
22-10-2020 -- (--) -- (--) -- 10.28 (07:40) 5.83 (07:40) 4.4 0.2 4.2 0 0
21-10-2020 -- (--) -- (--) -- 8.61 (01:20) 4.72 (02:20) 0.6 0 0 0 0.6
20-10-2020 -- (--) -- (--) -- 11.39 (21:10) 7.22 (14:50) 0 0 0 0 0
19-10-2020 -- (--) -- (--) -- 9.72 (17:50) 6.94 (16:40) 0 0 0 0 0
18-10-2020 -- (--) -- (--) -- 10.28 (16:30) 8.06 (16:30) 0 0 0 0 0
17-10-2020 -- (--) -- (--) -- 5 (15:00) 4.17 (15:00) 0 0 0 0 0
16-10-2020 -- (--) -- (--) -- 8.06 (13:10) 5.83 (13:00) 0 0 0 0 0
15-10-2020 -- (--) -- (--) -- 5.83 (12:30) 3.33 (12:50) 0 0 0 0 0
14-10-2020 -- (--) -- (--) -- 16.11 (17:10) 9.44 (20:00) 0.2 0 0.2 0 0
13-10-2020 -- (--) -- (--) -- 4.72 (18:50) 2.5 (12:10) 0 0 0 0 0
12-10-2020 -- (--) -- (--) -- 6.39 (14:00) 5.56 (14:00) 0 0 0 0 0
11-10-2020 -- (--) -- (--) -- 4.44 (14:30) 3.33 (14:30) 0 0 0 0 0
10-10-2020 -- (--) -- (--) -- 4.72 (12:30) 3.06 (12:40) 0 0 0 0 0
09-10-2020 -- (--) -- (--) -- 4.17 (11:30) 2.78 (15:30) 0 0 0 0 0
08-10-2020 -- (--) -- (--) -- 5 (17:10) 3.06 (17:20) 0 0 0 0 0
07-10-2020 -- (--) -- (--) -- 4.17 (10:50) 2.78 (10:50) 0 0 0 0 0
06-10-2020 -- (--) -- (--) -- 6.11 (02:50) 3.89 (03:20) 0 0 0 0 0
05-10-2020 -- (--) -- (--) -- 10 (07:30) 4.72 (07:50) 0 0 0 0 0
04-10-2020 -- (--) -- (--) -- 14.72 (18:30) 8.89 (18:30) 0 0 0 0 0
03-10-2020 -- (--) -- (--) -- 13.33 (01:40) 8.61 (06:40) 0 0 0 0 0
02-10-2020 -- (--) -- (--) -- 17.78 (22:20) 11.39 (22:30) 0.2 0 0 0 0.2
01-10-2020 -- (--) -- (--) -- 14.72 (17:00) 8.61 (17:30) 0 0 0 0 0
30-09-2020 -- (--) -- (--) -- 3.89 (17:00) 2.22 (12:20) 0 0 0 0 0

Gráficas

Temp. máximas Temp. mínimas Temp. medias Precipitaciones Rachas de viento máximas Velocidades máximas media en intervalos de 10 minutos

Datos horarios

Fecha y hora oficial Temperatura (ºC) Velocidad del viento (km/h) Dirección del viento Racha (km/h) Dirección de racha Precipitación (mm) Presión (hPa) Tendencia (hPa) Humedad (%)
2020-10-29 23:00:00 15.4 2 Norte 3 Noroeste 0 -- -- 82
2020-10-29 22:00:00 16 2 Sudeste 6 Norte 0 -- -- 80
2020-10-29 21:00:00 16.4 0 Calma 6 Sudeste 0 -- -- 79
2020-10-29 20:00:00 17.6 2 Norte 8 Noroeste 0 -- -- 72
2020-10-29 19:00:00 18.3 5 Noroeste 10 Noroeste 0 -- -- 70
2020-10-29 18:00:00 19.1 7 Sudeste 27 Sudeste 0 -- -- 69
2020-10-29 17:00:00 19.4 22 Sudeste 27 Sudeste 0 -- -- 66
2020-10-29 16:00:00 19.2 22 Sudeste 33 Sudeste 0 -- -- 68
2020-10-29 15:00:00 19.1 23 Sudeste 29 Sur 0 -- -- 55
2020-10-29 14:00:00 19 15 Sur 22 Sur 0 -- -- 60
2020-10-29 13:00:00 18.5 12 Sur 22 Sur 0 -- -- 70
2020-10-29 12:00:00 18.2 15 Sur 22 Sur 0 -- -- 71
2020-10-29 11:00:00 19.6 5 Sur 9 Sur 0 -- -- 58
2020-10-29 10:00:00 20 0 Calma 3 Sur 0 -- -- 59
2020-10-29 09:00:00 17 0 Calma 2 Nordeste 0 -- -- 67
2020-10-29 08:00:00 12.4 0 Calma 2 Norte 0 -- -- 82
2020-10-29 07:00:00 11.6 0 Calma 2 Norte 0 -- -- 81
2020-10-29 06:00:00 12 0 Calma 5 Norte 0 -- -- 79
2020-10-29 05:00:00 12.4 0 Calma 4 Este 0 -- -- 80
2020-10-29 04:00:00 11.8 0 Calma 4 Noroeste 0 -- -- 83
2020-10-29 03:00:00 12.6 3 Noroeste 5 Noroeste 0 -- -- 81
2020-10-29 02:00:00 12.3 0 Calma 3 Norte 0 -- -- 83
2020-10-29 01:00:00 13.1 0 Calma 3 Sur 0 -- -- 81
2020-10-29 00:00:00 13.3 0 Calma 4 Norte 0 -- -- 82
2020-10-28 23:00:00 13.7 0 Calma 3 Norte 0 -- -- 83
2020-10-28 22:00:00 14.3 0 Calma 2 Noroeste 0 -- -- 81
2020-10-28 21:00:00 15 0 Calma 3 Noroeste 0 -- -- 80
2020-10-28 20:00:00 15.7 0 Calma 3 Este 0 -- -- 76
2020-10-28 19:00:00 16.5 0 Calma 7 Sudoeste 0 -- -- 70
2020-10-28 18:00:00 17.5 5 Sudoeste 7 Sudoeste 0 -- -- 66
2020-10-28 17:00:00 18.7 4 Sudoeste 9 Sudoeste 0 -- -- 73
2020-10-28 16:00:00 19.6 5 Sudoeste 9 Sur 0 -- -- 77
2020-10-28 15:00:00 18.9 6 Sur 10 Sur 0 -- -- 76
2020-10-28 14:00:00 19.4 5 Sudoeste 10 Sur 0 -- -- 75
2020-10-28 13:00:00 18 7 Sur 15 Sur 0 -- -- 75
2020-10-28 12:00:00 17.4 10 Sur 19 Sur 0 -- -- 74
2020-10-28 11:00:00 17.4 14 Sudeste 18 Sudeste 0 -- -- 68
2020-10-28 10:00:00 20.3 3 Sur 4 Sur 0 -- -- 48
2020-10-28 09:00:00 16.7 0 Calma 4 Sudeste 0 -- -- 56
2020-10-28 08:00:00 12.4 0 Calma 8 Noroeste 0 -- -- 75
2020-10-28 07:00:00 11.3 0 Calma 5 Norte 0 -- -- 73
2020-10-28 06:00:00 11.7 3 Sudeste 6 Noroeste 0 -- -- 77
2020-10-28 05:00:00 11.7 0 Calma 5 Noroeste 0 -- -- 78
2020-10-28 04:00:00 12.2 0 Calma 4 Noroeste 0 -- -- 76
2020-10-28 03:00:00 12.5 4 Norte 6 Norte 0 -- -- 75
2020-10-28 02:00:00 12.7 3 Este 6 Sudeste 0 -- -- 75
2020-10-28 01:00:00 13.6 2 Norte 6 Norte 0 -- -- 69
2020-10-28 00:00:00 13.5 3 Nordeste 8 Nordeste 0 -- -- 70
2020-10-27 23:00:00 13.3 0 Calma 4 Norte 0 -- -- 74
2020-10-27 22:00:00 14.1 3 Este 8 Este 0 -- -- 75
2020-10-27 21:00:00 14.9 3 Nordeste 6 Sudeste 0 -- -- 73
2020-10-27 20:00:00 15.2 3 Norte 8 Nordeste 0 -- -- 71
2020-10-27 19:00:00 16.6 4 Oeste 12 Oeste 0 -- -- 70
2020-10-27 18:00:00 17.1 7 Oeste 17 Oeste 0 -- -- 67
2020-10-27 17:00:00 18.3 7 Oeste 20 Oeste 0 -- -- 59
2020-10-27 16:00:00 19.7 6 Sudoeste 14 Sudoeste 0 -- -- 56
2020-10-27 15:00:00 18.5 4 Sur 8 Sudeste 0 -- -- 56
2020-10-27 14:00:00 -- 4 Sudoeste 15 Sudoeste 0 -- -- 50
2020-10-27 13:00:00 -- 10 Sudoeste 18 Sudoeste 0 -- -- 50
2020-10-27 12:00:00 -- 9 Oeste 22 Oeste 0 -- -- 57
2020-10-27 11:00:00 -- 10 Oeste 22 Noroeste 0 -- -- 39
2020-10-27 10:00:00 -- 6 Norte 17 Norte 0 -- -- 31
2020-10-27 09:00:00 -- 6 Norte 26 Norte 0 -- -- 38
2020-10-27 08:00:00 -- 10 Norte 31 Norte 0 -- -- 44
2020-10-27 07:00:00 -- 17 Norte 35 Norte 0 -- -- 43
2020-10-27 06:00:00 -- 15 Norte 32 Norte 0 -- -- 45
2020-10-27 05:00:00 -- 13 Norte 33 Norte 0 -- -- 46
2020-10-27 04:00:00 -- 14 Norte 34 Norte 0 -- -- 45
2020-10-27 03:00:00 -- 17 Norte 39 Norte 0 -- -- 44
2020-10-27 02:00:00 -- 17 Norte 36 Norte 0 -- -- 44
2020-10-27 01:00:00 -- 17 Norte 33 Norte 0 -- -- 43
2020-10-27 00:00:00 -- 18 Norte 35 Norte 0 -- -- 43
2020-10-26 23:00:00 -- 18 Norte 36 Norte 0 -- -- 41
2020-10-26 22:00:00 -- 15 Norte 33 Norte 0 -- -- 40
2020-10-26 21:00:00 -- 13 Norte 31 Norte 0 -- -- 40
2020-10-26 20:00:00 -- 4 Noroeste 21 Oeste 0 -- -- 38
2020-10-26 19:00:00 -- 9 Noroeste 28 Norte 0 -- -- 36
2020-10-26 18:00:00 -- 13 Norte 24 Norte 0.2 -- -- 33
2020-10-26 17:00:00 -- 14 Noroeste 47 Noroeste 0 -- -- 26
2020-10-26 16:00:00 -- 22 Noroeste 52 Noroeste 0 -- -- 26
2020-10-26 15:00:00 -- 23 Noroeste 48 Noroeste 0 -- -- 29
2020-10-26 14:00:00 -- 28 Noroeste 69 Oeste 0 -- -- 31
2020-10-26 13:00:00 -- 42 Noroeste 66 Noroeste 0 -- -- 33
2020-10-26 12:00:00 -- 30 Noroeste 55 Noroeste 0 -- -- 36
2020-10-26 11:00:00 -- 21 Noroeste 58 Noroeste 0 -- -- 35
2020-10-26 10:00:00 -- 30 Noroeste 55 Noroeste 0 -- -- 36
2020-10-26 09:00:00 -- 21 Noroeste 47 Oeste 0 -- -- 41
2020-10-26 08:00:00 -- 25 Noroeste 47 Noroeste 0 -- -- 45
2020-10-26 07:00:00 -- 24 Noroeste 50 Noroeste 0 -- -- 45
2020-10-26 06:00:00 -- 26 Noroeste 40 Noroeste 0 -- -- 51
2020-10-26 05:00:00 -- 12 Oeste 52 Norte 0 -- -- 67
2020-10-26 04:00:00 -- 10 Noroeste 31 Noroeste 0 -- -- 65
2020-10-26 03:00:00 -- 18 Oeste 41 Oeste 0 -- -- 85
2020-10-26 02:00:00 -- 17 Oeste 28 Noroeste 0 -- -- 82
2020-10-26 01:00:00 -- 16 Noroeste 29 Oeste 0 -- -- 79
2020-10-26 00:00:00 -- 14 Oeste 38 Oeste 0 -- -- 78
2020-10-25 23:00:00 -- 20 Oeste 39 Oeste 0 -- -- 79
2020-10-25 22:00:00 -- 11 Oeste 27 Oeste 0 -- -- 73
2020-10-25 21:00:00 -- 16 Oeste 30 Oeste 0 -- -- 76
2020-10-25 20:00:00 -- 17 Oeste 45 Oeste 0 -- -- 69
2020-10-25 19:00:00 -- 23 Oeste 42 Oeste 0 -- -- 74
2020-10-25 18:00:00 -- 20 Oeste 42 Oeste 0 -- -- 73
2020-10-25 17:00:00 -- 20 Oeste 38 Oeste 0 -- -- 70
2020-10-25 16:00:00 -- 21 Oeste 37 Oeste 0 -- -- 65
2020-10-25 15:00:00 -- 19 Oeste 36 Oeste 0 -- -- 64
2020-10-25 14:00:00 -- 15 Oeste 29 Sudoeste 0 -- -- 68
2020-10-25 13:00:00 -- 11 Oeste 24 Oeste 0 -- -- 65
2020-10-25 12:00:00 -- 10 Oeste 23 Oeste 0 -- -- 66
2020-10-25 11:00:00 -- 8 Sudoeste 23 Oeste 0 -- -- 62
2020-10-25 10:00:00 -- 7 Noroeste 13 Noroeste 0 -- -- 57
2020-10-25 09:00:00 -- 0 Calma 4 Norte 0 -- -- 71
2020-10-25 08:00:00 -- 0 Calma 5 Sudeste 0 -- -- 80
2020-10-25 07:00:00 -- 2 Sudeste 7 Oeste 0 -- -- 77
2020-10-25 06:00:00 -- 0 Calma 6 Noroeste 0 -- -- 69
2020-10-25 05:00:00 -- 5 Noroeste 10 Oeste 0 -- -- 66
2020-10-25 04:00:00 -- 7 Noroeste 29 Oeste 0 -- -- 66
2020-10-25 03:00:00 -- 18 Noroeste 28 Oeste -- -- -- 63
2020-10-25 02:00:00 -- 0 Calma 8 Noroeste 0 -- -- 67
2020-10-25 01:00:00 -- 10 Noroeste 18 Oeste 0 -- -- 64
2020-10-25 00:00:00 -- 3 Norte 7 Sudoeste 0 -- -- 78
2020-10-24 23:00:00 -- 4 Sudoeste 6 Sudoeste 0 -- -- 84
2020-10-24 22:00:00 -- 0 Calma 7 Noroeste 0 -- -- 82
2020-10-24 21:00:00 -- 3 Nordeste 4 Nordeste 0 -- -- 84
2020-10-24 20:00:00 -- 0 Calma 6 Nordeste 0 -- -- 83
2020-10-24 19:00:00 -- 4 Sudeste 12 Sudoeste 0 -- -- 82
2020-10-24 18:00:00 -- 4 Sur 10 Sudoeste 0 -- -- 73
2020-10-24 17:00:00 -- 5 Sur 13 Sudoeste 0 -- -- 68
2020-10-24 16:00:00 -- 8 Sudoeste 16 Sudoeste 0 -- -- 61
2020-10-24 15:00:00 -- 5 Sudoeste 13 Sudoeste 0 -- -- 63
2020-10-24 14:00:00 -- 7 Sudoeste 12 Sudoeste 0 -- -- 69
2020-10-24 13:00:00 -- 7 Sudoeste 14 Sudoeste 0 -- -- 70
2020-10-24 12:00:00 -- 8 Sudoeste 13 Sudoeste 0 -- -- 69
2020-10-24 11:00:00 -- 5 Sudoeste 10 Sudoeste 0 -- -- 58
2020-10-24 10:00:00 -- 6 Oeste 10 Sudoeste 0 -- -- 59
2020-10-24 09:00:00 -- 4 Norte 13 Nordeste 0 -- -- 58
2020-10-24 08:00:00 -- 5 Norte 12 Noroeste 0 -- -- 61
2020-10-24 07:00:00 -- 4 Norte 10 Norte 0 -- -- 62
2020-10-24 06:00:00 -- 3 Nordeste 10 Nordeste 0 -- -- 60
2020-10-24 05:00:00 -- 0 Calma 11 Oeste 0 -- -- 64
2020-10-24 04:00:00 -- 3 Norte 13 Norte 0 -- -- 57
2020-10-24 03:00:00 -- 4 Norte 24 Norte 0 -- -- 53
2020-10-24 02:00:00 -- 7 Norte 21 Norte 0 -- -- 52
2020-10-24 01:00:00 -- 10 Noroeste 16 Noroeste 0 -- -- 51
2020-10-24 00:00:00 -- 3 Norte 8 Norte 0 -- -- 65
2020-10-23 23:00:00 -- 7 Noroeste 10 Noroeste 0 -- -- 62
2020-10-23 22:00:00 -- 0 Calma 12 Noroeste 0 -- -- 79
2020-10-23 21:00:00 -- 6 Noroeste 14 Noroeste 0 -- -- 75
2020-10-23 20:00:00 -- 10 Noroeste 28 Oeste 0 -- -- 70
2020-10-23 19:00:00 -- 14 Oeste 36 Oeste 0 -- -- 71
2020-10-23 18:00:00 -- 20 Oeste 36 Oeste 0 -- -- 75
2020-10-23 17:00:00 -- 15 Oeste 31 Oeste 0 -- -- 78
2020-10-23 16:00:00 -- 14 Oeste 29 Oeste 0 -- -- 74
2020-10-23 15:00:00 -- 15 Oeste 30 Oeste 0 -- -- 70
2020-10-23 14:00:00 -- 14 Oeste 27 Sudoeste 0 -- -- 74
2020-10-23 13:00:00 -- 11 Oeste 23 Oeste 0 -- -- 73
2020-10-23 12:00:00 -- 9 Sudoeste 16 Sudoeste 0 -- -- 76
2020-10-23 11:00:00 -- 0 Calma 5 Sur 0 -- -- 84
2020-10-23 10:00:00 -- 0 Calma 3 Noroeste 0 -- -- 91
2020-10-23 09:00:00 -- 3 Nordeste 7 Nordeste 0 -- -- 95
2020-10-23 08:00:00 -- 0 Calma 4 Sudeste 0 -- -- 95
2020-10-23 07:00:00 -- 0 Calma 6 Noroeste 0 -- -- 95
2020-10-23 06:00:00 -- 2 Noroeste 4 Noroeste 0 -- -- 95
2020-10-23 05:00:00 -- 0 Calma 5 Sudeste 0 -- -- 95
2020-10-23 04:00:00 -- 3 Sudeste 5 Noroeste 0 -- -- 96
2020-10-23 03:00:00 -- 0 Calma 2 Noroeste 0 -- -- 95
2020-10-23 02:00:00 -- 0 Calma 6 Noroeste 0 -- -- 95
2020-10-23 01:00:00 -- 2 Norte 6 Noroeste 0 -- -- 94
2020-10-23 00:00:00 -- 0 Calma 3 Sudoeste 0 -- -- 94
2020-10-22 23:00:00 -- 3 Noroeste 4 Nordeste 0 -- -- 93
2020-10-22 22:00:00 -- 0 Calma 8 Noroeste 0 -- -- 93
2020-10-22 21:00:00 -- 2 Noroeste 10 Noroeste 0 -- -- 92
2020-10-22 20:00:00 -- 0 Calma 8 Sur 0 -- -- 91
2020-10-22 19:00:00 -- 4 Sur 6 Sur 0 -- -- 89
2020-10-22 18:00:00 -- 3 Sur 6 Sur 0 -- -- 87
2020-10-22 17:00:00 -- 0 Calma 7 Sudeste 0 -- -- 88
2020-10-22 16:00:00 -- 5 Sur 9 Sudeste 0 -- -- 87
2020-10-22 15:00:00 -- 2 Sudeste 6 Este 0 -- -- 77
2020-10-22 14:00:00 -- 3 Nordeste 8 Este 0 -- -- 85
2020-10-22 13:00:00 -- 3 Nordeste 9 Noroeste 0 -- -- 90
2020-10-22 12:00:00 -- 3 Norte 6 Norte 0 -- -- 91
2020-10-22 11:00:00 -- 3 Nordeste 6 Norte 0 -- -- 91
2020-10-22 10:00:00 -- 4 Noroeste 8 Nordeste 0 -- -- 92
2020-10-22 09:00:00 -- 4 Nordeste 13 Este 4.2 -- -- 88
2020-10-22 08:00:00 -- 8 Noroeste 37 Oeste 0 -- -- 81
2020-10-22 07:00:00 -- 0 Calma 5 Nordeste 0 -- -- 80
2020-10-22 06:00:00 -- 4 Nordeste 5 Nordeste 0.2 -- -- 81
2020-10-22 05:00:00 -- 3 Nordeste 9 Sur 0 -- -- 77
2020-10-22 04:00:00 -- 3 Noroeste 5 Sur 0 -- -- 78
2020-10-22 03:00:00 -- 4 Sur 12 Norte 0 -- -- 75
2020-10-22 02:00:00 -- 8 Nordeste 17 Nordeste 0 -- -- 83
2020-10-22 01:00:00 -- 2 Norte 6 Norte 0 -- -- 83
2020-10-22 00:00:00 -- 4 Este 20 Sudeste 0.2 -- -- 82
2020-10-21 23:00:00 -- 4 Este 10 Norte 0 -- -- 77
2020-10-21 22:00:00 -- 5 Norte 9 Norte 0.2 -- -- 86
2020-10-21 21:00:00 -- 3 Nordeste 9 Este 0 -- -- 87
2020-10-21 20:00:00 -- 4 Oeste 9 Sudeste 0.2 -- -- 86
2020-10-21 19:00:00 -- 10 Sudeste 12 Sudeste 0 -- -- 86
2020-10-21 18:00:00 -- 5 Sur 12 Sur 0 -- -- 79
2020-10-21 17:00:00 -- 3 Noroeste 17 Sudoeste 0 -- -- 79
2020-10-21 16:00:00 -- 9 Sudoeste 16 Sudoeste 0 -- -- 72
2020-10-21 15:00:00 -- 9 Oeste 18 Oeste 0 -- -- 54
2020-10-21 14:00:00 -- 10 Oeste 20 Oeste 0 -- -- 48
2020-10-21 13:00:00 -- 9 Oeste 22 Oeste 0 -- -- 55
2020-10-21 12:00:00 -- 13 Oeste 23 Oeste 0 -- -- 53
2020-10-21 11:00:00 -- 10 Oeste 21 Oeste 0 -- -- 58
2020-10-21 10:00:00 -- 4 Oeste 15 Oeste 0 -- -- 69
2020-10-21 09:00:00 -- 2 Norte 11 Este 0 -- -- 85
2020-10-21 08:00:00 -- 5 Noroeste 8 Este 0 -- -- 89
2020-10-21 07:00:00 -- 3 Oeste 10 Noroeste 0 -- -- 87
2020-10-21 06:00:00 -- 9 Noroeste 15 Noroeste 0 -- -- 85
2020-10-21 05:00:00 -- 7 Oeste 18 Oeste 0 -- -- 81
2020-10-21 04:00:00 -- 10 Oeste 17 Oeste 0 -- -- 79
2020-10-21 03:00:00 -- 13 Noroeste 30 Oeste 0 -- -- 81
2020-10-21 02:00:00 -- 10 Oeste 31 Oeste 0 -- -- 71
2020-10-21 01:00:00 -- 10 Noroeste 19 Noroeste 0 -- -- 61
2020-10-21 00:00:00 -- 5 Norte 12 Norte 0 -- -- 70
2020-10-20 23:00:00 -- 5 Norte 10 Noroeste 0 -- -- 79
2020-10-20 22:00:00 -- 6 Noroeste 41 Oeste 0 -- -- 80
2020-10-20 21:00:00 -- 19 Oeste 35 Sudoeste 0 -- -- 81
2020-10-20 20:00:00 -- 4 Oeste 7 Oeste 0 -- -- 69
2020-10-20 19:00:00 -- 2 Oeste 20 Sudeste 0 -- -- 64
2020-10-20 18:00:00 -- 6 Oeste 28 Sudeste 0 -- -- 56
2020-10-20 17:00:00 -- 9 Sudeste 32 Sudeste 0 -- -- 59
2020-10-20 16:00:00 -- 14 Sudeste 30 Sudeste 0 -- -- 53
2020-10-20 15:00:00 -- 21 Sudeste 33 Sudeste 0 -- -- 67
2020-10-20 14:00:00 -- 15 Sudeste 24 Sudeste 0 -- -- 59
2020-10-20 13:00:00 -- 7 Sudeste 17 Sudeste 0 -- -- 65
2020-10-20 12:00:00 -- 2 Oeste 6 Sudoeste 0 -- -- 60
2020-10-20 11:00:00 -- 3 Sur 5 Sur 0 -- -- 64
2020-10-20 10:00:00 -- 0 Calma 4 Norte 0 -- -- 74
2020-10-20 09:00:00 -- 3 Sudeste 5 Sudeste 0 -- -- 84
2020-10-20 08:00:00 -- 0 Calma 6 Noroeste 0 -- -- 86
2020-10-20 07:00:00 -- 0 Calma 3 Este 0 -- -- 85
2020-10-20 06:00:00 -- 0 Calma 5 Noroeste 0 -- -- 84
2020-10-20 05:00:00 -- 0 Calma 5 Oeste 0 -- -- 82
2020-10-20 04:00:00 -- 3 Norte 5 Norte 0 -- -- 82
2020-10-20 03:00:00 -- 2 Norte 6 Nordeste 0 -- -- 83
2020-10-20 02:00:00 -- 2 Este 5 Nordeste 0 -- -- 83
2020-10-20 01:00:00 -- 3 Nordeste 7 Nordeste 0 -- -- 85
2020-10-20 00:00:00 -- 2 Noroeste 6 Norte 0 -- -- 85
2020-10-19 23:00:00 -- 3 Sudeste 5 Sudeste 0 -- -- 85
2020-10-19 22:00:00 -- 2 Norte 10 Noroeste 0 -- -- 82
2020-10-19 21:00:00 -- 2 Noroeste 13 Oeste 0 -- -- 80
2020-10-19 20:00:00 -- 6 Noroeste 18 Noroeste 0 -- -- 80
2020-10-19 19:00:00 -- 9 Noroeste 22 Sudeste 0 -- -- 72
2020-10-19 18:00:00 -- 21 Sudeste 35 Sudeste 0 -- -- 70
2020-10-19 17:00:00 -- 24 Sudeste 33 Sudeste 0 -- -- 70
2020-10-19 16:00:00 -- 13 Sur 25 Sudeste 0 -- -- 63
2020-10-19 15:00:00 -- 15 Sur 26 Sudoeste 0 -- -- 51
2020-10-19 14:00:00 -- 15 Sur 23 Sur 0 -- -- 49
2020-10-19 13:00:00 -- 6 Sur 12 Sudoeste 0 -- -- 43
2020-10-19 12:00:00 -- 6 Sudoeste 9 Sur 0 -- -- 54
2020-10-19 11:00:00 -- 5 Sudoeste 8 Sudoeste 0 -- -- 43
2020-10-19 10:00:00 -- 0 Calma 4 Noroeste 0 -- -- 56
2020-10-19 09:00:00 -- 0 Calma 4 Sudeste 0 -- -- 61
2020-10-19 08:00:00 -- 0 Calma 4 Norte 0 -- -- 63
2020-10-19 07:00:00 -- 3 Nordeste 7 Nordeste 0 -- -- 61
2020-10-19 06:00:00 -- 0 Calma 4 Nordeste 0 -- -- 70
2020-10-19 05:00:00 -- 0 Calma 2 Norte 0 -- -- 70
2020-10-19 04:00:00 -- 0 Calma 4 Nordeste 0 -- -- 68
2020-10-19 03:00:00 -- 4 Nordeste 8 Nordeste 0 -- -- 67
2020-10-19 02:00:00 -- 2 Sudeste 4 Norte 0 -- -- 76
2020-10-19 01:00:00 -- 0 Calma 7 Este 0 -- -- 74
2020-10-19 00:00:00 -- 0 Calma 4 Este 0 -- -- 73
2020-10-18 23:00:00 -- 0 Calma 5 Nordeste 0 -- -- 72
2020-10-18 22:00:00 -- 0 Calma 4 Norte 0 -- -- 71
2020-10-18 21:00:00 -- 0 Calma 8 Oeste 0 -- -- 67
2020-10-18 20:00:00 -- 5 Noroeste 23 Sudeste 0 -- -- 64
2020-10-18 19:00:00 -- 19 Sudeste 30 Sudeste 0 -- -- 66
2020-10-18 18:00:00 -- 23 Sudeste 32 Sudeste 0 -- -- 68
2020-10-18 17:00:00 -- 24 Sudeste 37 Sudeste 0 -- -- 79
2020-10-18 16:00:00 -- 25 Sudeste 32 Sudeste 0 -- -- 73
2020-10-18 15:00:00 -- 24 Sudeste 29 Sudeste 0 -- -- 77
2020-10-18 14:00:00 -- 25 Sudeste 29 Sudeste 0 -- -- 73
2020-10-18 13:00:00 -- 11 Sur 18 Sur 0 -- -- 70
2020-10-18 12:00:00 -- 5 Sur 9 Sudoeste 0 -- -- 64
2020-10-18 11:00:00 -- 4 Sudoeste 8 Sur 0 -- -- 57
2020-10-18 10:00:00 -- 0 Calma 4 Norte 0 -- -- 65
2020-10-18 09:00:00 -- 2 Norte 5 Sudeste 0 -- -- 76
2020-10-18 08:00:00 -- 0 Calma 3 Noroeste 0 -- -- 82
2020-10-18 07:00:00 -- 0 Calma 4 Norte 0 -- -- 81
2020-10-18 06:00:00 -- 0 Calma 3 Nordeste 0 -- -- 83
2020-10-18 05:00:00 -- 0 Calma 2 Norte 0 -- -- 83
2020-10-18 04:00:00 -- 0 Calma 5 Norte 0 -- -- 82
2020-10-18 03:00:00 -- 0 Calma 3 Este 0 -- -- 84
2020-10-18 02:00:00 -- 0 Calma 2 Este 0 -- -- 84
2020-10-18 01:00:00 -- 0 Calma 4 Nordeste 0 -- -- 84
2020-10-18 00:00:00 -- 0 Calma 4 Nordeste 0 -- -- 84
2020-10-17 23:00:00 -- 0 Calma 3 Norte 0 -- -- 88
2020-10-17 22:00:00 -- 0 Calma 4 Sur 0 -- -- 88
2020-10-17 21:00:00 -- 0 Calma 4 Sudeste 0 -- -- 88
2020-10-17 20:00:00 -- 3 Sudeste 6 Sudeste 0 -- -- 88
2020-10-17 19:00:00 -- 4 Sudeste 9 Sudeste 0 -- -- 86
2020-10-17 18:00:00 -- 6 Sudeste 12 Sudeste 0 -- -- 81
2020-10-17 17:00:00 -- 9 Sudeste 17 Sudeste 0 -- -- 81
2020-10-17 16:00:00 -- 13 Sudeste 17 Sudeste 0 -- -- 79
2020-10-17 15:00:00 -- 15 Sudeste 18 Sudeste 0 -- -- 74
2020-10-17 14:00:00 -- 14 Sudeste 17 Sudeste 0 -- -- 76
2020-10-17 13:00:00 -- 12 Sudeste 14 Sudeste 0 -- -- 73
2020-10-17 12:00:00 -- 8 Sudeste 12 Sudeste 0 -- -- 67
2020-10-17 11:00:00 -- 3 Sur 5 Sudoeste 0 -- -- 49
2020-10-17 10:00:00 -- 0 Calma 6 Nordeste 0 -- -- 57
2020-10-17 09:00:00 -- 0 Calma 6 Norte 0 -- -- 71
2020-10-17 08:00:00 -- 0 Calma 4 Sudeste 0 -- -- 70
2020-10-17 07:00:00 -- 3 Nordeste 7 Nordeste 0 -- -- 70
2020-10-17 06:00:00 -- 0 Calma 3 Norte 0 -- -- 77
2020-10-17 05:00:00 -- 0 Calma 3 Norte 0 -- -- 76
2020-10-17 04:00:00 -- 2 Sudeste 4 Sudeste 0 -- -- 75
2020-10-17 03:00:00 -- 0 Calma 7 Nordeste 0 -- -- 73
2020-10-17 02:00:00 -- 0 Calma 4 Nordeste 0 -- -- 81
2020-10-17 01:00:00 -- 0 Calma 5 Norte 0 -- -- 82
2020-10-17 00:00:00 -- 0 Calma 4 Noroeste 0 -- -- 79
2020-10-16 23:00:00 -- 2 Este 8 Sudeste 0 -- -- 79
2020-10-16 22:00:00 -- 4 Nordeste 9 Nordeste 0 -- -- 79
2020-10-16 21:00:00 -- 0 Calma 2 Sur 0 -- -- 76
2020-10-16 20:00:00 -- 2 Sudoeste 5 Sudoeste 0 -- -- 74
2020-10-16 19:00:00 -- 3 Sudoeste 7 Sur 0 -- -- 69
2020-10-16 18:00:00 -- 4 Sudoeste 8 Sudoeste 0 -- -- 61
2020-10-16 17:00:00 -- 4 Sudoeste 9 Sudoeste 0 -- -- 61
2020-10-16 16:00:00 -- 4 Sudoeste 13 Sudoeste 0 -- -- 58
2020-10-16 15:00:00 -- 8 Sudoeste 18 Oeste 0 -- -- 65
2020-10-16 14:00:00 -- 9 Sudoeste 29 Sudeste 0 -- -- 66
2020-10-16 13:00:00 -- 21 Sudeste 28 Sudeste 0 -- -- 61
2020-10-16 12:00:00 -- 18 Sudeste 25 Sudeste 0 -- -- 59
2020-10-16 11:00:00 -- 4 Sudoeste 7 Sudoeste 0 -- -- 48
2020-10-16 10:00:00 -- 4 Nordeste 9 Nordeste 0 -- -- 41
2020-10-16 09:00:00 -- 6 Nordeste 11 Norte 0 -- -- 49
2020-10-16 08:00:00 -- 3 Nordeste 8 Norte 0 -- -- 57
2020-10-16 07:00:00 -- 4 Este 9 Este 0 -- -- 53
2020-10-16 06:00:00 -- 3 Este 7 Este 0 -- -- 65
2020-10-16 05:00:00 -- 3 Nordeste 13 Sudeste 0 -- -- 65
2020-10-16 04:00:00 -- 6 Sudeste 20 Sudeste 0 -- -- 61
2020-10-16 03:00:00 -- 6 Norte 17 Norte 0 -- -- 35
2020-10-16 02:00:00 -- 5 Norte 13 Norte 0 -- -- 37
2020-10-16 01:00:00 -- 3 Oeste 14 Este 0 -- -- 40
2020-10-16 00:00:00 -- 2 Norte 9 Noroeste 0 -- -- 61
2020-10-15 23:00:00 -- 4 Noroeste 8 Nordeste 0 -- -- 68
2020-10-15 22:00:00 -- 0 Calma 9 Nordeste 0 -- -- 70
2020-10-15 21:00:00 -- 3 Nordeste 5 Nordeste 0 -- -- 74
2020-10-15 20:00:00 -- 2 Noroeste 11 Oeste 0 -- -- 68
2020-10-15 19:00:00 -- 7 Oeste 19 Oeste 0 -- -- 64
2020-10-15 18:00:00 -- 10 Oeste 20 Oeste 0 -- -- 56
2020-10-15 17:00:00 -- 9 Oeste 18 Oeste 0 -- -- 52
2020-10-15 16:00:00 -- 9 Sudoeste 16 Sudoeste 0 -- -- 60
2020-10-15 15:00:00 -- 8 Oeste 19 Sudoeste 0 -- -- 54
2020-10-15 14:00:00 -- 8 Sudoeste 19 Oeste 0 -- -- 57
2020-10-15 13:00:00 -- 11 Sudoeste 21 Oeste 0 -- -- 68
2020-10-15 12:00:00 -- 4 Sur 5 Sudoeste 0 -- -- 44
2020-10-15 11:00:00 -- 4 Sudoeste 6 Sudoeste 0 -- -- 39
2020-10-15 10:00:00 -- 2 Oeste 6 Norte 0 -- -- 41
2020-10-15 09:00:00 -- 4 Norte 8 Norte 0 -- -- 59
2020-10-15 08:00:00 -- 0 Calma 5 Este 0 -- -- 67
2020-10-15 07:00:00 -- 2 Norte 5 Norte 0 -- -- 62
2020-10-15 06:00:00 -- 0 Calma 4 Nordeste 0 -- -- 65
2020-10-15 05:00:00 -- 0 Calma 4 Este 0 -- -- 62
2020-10-15 04:00:00 -- 0 Calma 5 Norte 0 -- -- 57
2020-10-15 03:00:00 -- 3 Noroeste 7 Este 0 -- -- 50
2020-10-15 02:00:00 -- 5 Sudeste 12 Este 0 -- -- 61
2020-10-15 01:00:00 -- 5 Este 17 Norte 0 -- -- 47
2020-10-15 00:00:00 -- 3 Nordeste 22 Norte 0 -- -- 36
2020-10-14 23:00:00 -- 3 Sur 31 Noroeste 0 -- -- 37
2020-10-14 22:00:00 -- 14 Noroeste 34 Noroeste 0 -- -- 32
2020-10-14 21:00:00 -- 9 Sur 56 Noroeste 0 -- -- 31
2020-10-14 20:00:00 -- 34 Noroeste 57 Noroeste 0 -- -- 30
2020-10-14 19:00:00 -- 24 Noroeste 52 Oeste 0 -- -- 29
2020-10-14 18:00:00 -- 25 Oeste 58 Oeste 0 -- -- 68
2020-10-14 17:00:00 -- 31 Oeste 55 Oeste 0 -- -- 66
2020-10-14 16:00:00 -- 30 Oeste 53 Noroeste 0 -- -- 65
2020-10-14 15:00:00 -- 25 Oeste 53 Oeste 0 -- -- 64
2020-10-14 14:00:00 -- 27 Oeste 51 Oeste 0 -- -- 66
2020-10-14 13:00:00 -- 29 Oeste 55 Oeste 0 -- -- 70
2020-10-14 12:00:00 -- 18 Oeste 36 Sudoeste 0 -- -- 72
2020-10-14 11:00:00 -- 16 Oeste 30 Oeste 0 -- -- 75
2020-10-14 10:00:00 -- 3 Norte 5 Nordeste 0 -- -- 69
2020-10-14 09:00:00 -- 3 Norte 6 Nordeste 0 -- -- 83
2020-10-14 08:00:00 -- 2 Nordeste 9 Nordeste 0 -- -- 83
2020-10-14 07:00:00 -- 0 Calma 4 Noroeste 0.2 -- -- 83
2020-10-14 06:00:00 -- 0 Calma 4 Norte 0 -- -- 82
2020-10-14 05:00:00 -- 2 Norte 4 Oeste 0 -- -- 81
2020-10-14 04:00:00 -- 0 Calma 4 Noroeste 0 -- -- 82
2020-10-14 03:00:00 -- 2 Norte 8 Oeste 0 -- -- 80
2020-10-14 02:00:00 -- 2 Norte 8 Nordeste 0 -- -- 78
2020-10-14 01:00:00 -- 5 Nordeste 8 Nordeste 0 -- -- 77
2020-10-14 00:00:00 -- 4 Nordeste 8 Nordeste 0 -- -- 77
2020-10-13 23:00:00 -- 3 Nordeste 5 Nordeste 0 -- -- 79
2020-10-13 22:00:00 -- 2 Norte 8 Oeste 0 -- -- 81
2020-10-13 21:00:00 -- 4 Oeste 8 Oeste 0 -- -- 79
2020-10-13 20:00:00 -- 5 Oeste 15 Oeste 0 -- -- 77
2020-10-13 19:00:00 -- 8 Oeste 17 Oeste 0 -- -- 72
2020-10-13 18:00:00 -- 8 Oeste 14 Sudoeste 0 -- -- 63
2020-10-13 17:00:00 -- 7 Sudoeste 16 Sudoeste 0 -- -- 65
2020-10-13 16:00:00 -- 6 Sudoeste 17 Sudoeste 0 -- -- 62
2020-10-13 15:00:00 -- 8 Sudoeste 13 Sudoeste 0 -- -- 63
2020-10-13 14:00:00 -- 6 Sudoeste 12 Sudoeste 0 -- -- 65
2020-10-13 13:00:00 -- 6 Sudoeste 14 Sudoeste 0 -- -- 65
2020-10-13 12:00:00 -- 7 Sudoeste 14 Sudoeste 0 -- -- 52
2020-10-13 11:00:00 -- 6 Sur 9 Sur 0 -- -- 53
2020-10-13 10:00:00 -- 0 Calma 7 Noroeste 0 -- -- 47
2020-10-13 09:00:00 -- 0 Calma 4 Este 0 -- -- 65
2020-10-13 08:00:00 -- 3 Norte 9 Nordeste 0 -- -- 63
2020-10-13 07:00:00 -- 4 Norte 7 Norte 0 -- -- 67
2020-10-13 06:00:00 -- 4 Nordeste 8 Este 0 -- -- 71
2020-10-13 05:00:00 -- 3 Nordeste 5 Nordeste 0 -- -- 71
2020-10-13 04:00:00 -- -- -- -- -- -- -- -- --
2020-10-13 03:00:00 -- 3 Nordeste 6 Nordeste 0 -- -- 71
2020-10-13 02:00:00 -- 0 Calma 7 Nordeste 0 -- -- 72
2020-10-13 01:00:00 -- -- -- -- -- -- -- -- --
2020-10-13 00:00:00 -- 0 Calma 4 Nordeste 0 -- -- 70
2020-10-12 23:00:00 -- 3 Este 5 Este 0 -- -- 68
2020-10-12 22:00:00 -- 3 Noroeste 6 Norte 0 -- -- 64
2020-10-12 21:00:00 -- 3 Noroeste 12 Sudeste 0 -- -- 59
2020-10-12 20:00:00 -- 10 Este 23 Sudeste 0 -- -- 53
2020-10-12 19:00:00 -- 17 Sudeste 22 Sudeste 0 -- -- 67
2020-10-12 18:00:00 -- -- -- -- -- -- -- -- --
2020-10-12 17:00:00 -- 17 Sudeste 23 Sudeste 0 -- -- 65
2020-10-12 16:00:00 -- 19 Sudeste 23 Sudeste 0 -- -- 63
2020-10-12 15:00:00 -- 18 Sudeste 22 Sudeste 0 -- -- 63
2020-10-12 14:00:00 -- 20 Sudeste 23 Sudeste 0 -- -- 66
2020-10-12 13:00:00 -- 18 Sudeste 21 Sudeste 0 -- -- 63
2020-10-12 12:00:00 -- 17 Sudeste 22 Sudeste 0 -- -- 59
2020-10-12 11:00:00 -- 14 Sudeste 17 Sudeste 0 -- -- 67
2020-10-12 10:00:00 -- 2 Sur 4 Sur 0 -- -- 57
2020-10-12 09:00:00 -- 2 Noroeste 7 Este 0 -- -- 62
2020-10-12 08:00:00 -- 3 Este 5 Este 0 -- -- 63
2020-10-12 07:00:00 -- 2 Norte 6 Noroeste 0 -- -- 82
2020-10-12 06:00:00 -- 3 Norte 5 Norte 0 -- -- 80
2020-10-12 05:00:00 -- 2 Norte 7 Nordeste 0 -- -- 80
2020-10-12 04:00:00 -- -- -- -- -- -- -- -- --
2020-10-12 03:00:00 -- 0 Calma 5 Norte 0 -- -- 83
2020-10-12 02:00:00 -- 3 Norte 6 Norte 0 -- -- 80
2020-10-12 01:00:00 -- 2 Oeste 4 Norte 0 -- -- 77
2020-10-12 00:00:00 -- 0 Calma 8 Este 0 -- -- 77
2020-10-11 23:00:00 -- 0 Calma 8 Este 0 -- -- 77
2020-10-11 22:00:00 -- 0 Calma 5 Noroeste 0 -- -- 75
2020-10-11 21:00:00 -- -- -- -- -- -- -- -- --
2020-10-11 20:00:00 -- -- -- -- -- -- -- -- --
2020-10-11 19:00:00 -- 6 Sudoeste 10 Sudoeste 0 -- -- 69
2020-10-11 18:00:00 -- 8 Sudoeste 13 Sudoeste 0 -- -- 66
2020-10-11 17:00:00 -- 7 Sudoeste 13 Sudoeste 0 -- -- 63
2020-10-11 16:00:00 -- 10 Sudoeste 14 Sudoeste 0 -- -- 66
2020-10-11 15:00:00 -- 9 Sudoeste 16 Sudoeste 0 -- -- 67
2020-10-11 14:00:00 -- 8 Sudoeste 15 Sudoeste 0 -- -- 63
2020-10-11 13:00:00 -- 8 Sudoeste 14 Sudoeste 0 -- -- 61
2020-10-11 12:00:00 -- 4 Oeste 10 Sudoeste 0 -- -- 61
2020-10-11 11:00:00 -- 3 Oeste 6 Noroeste 0 -- -- 71
2020-10-11 10:00:00 -- 3 Nordeste 4 Nordeste 0 -- -- 78
2020-10-11 09:00:00 -- 2 Noroeste 4 Noroeste 0 -- -- 84
2020-10-11 08:00:00 -- 0 Calma 4 Sudeste 0 -- -- 86
2020-10-11 07:00:00 -- 0 Calma 3 Sudeste 0 -- -- 85
2020-10-11 06:00:00 -- 0 Calma 4 Oeste 0 -- -- 85
2020-10-11 05:00:00 -- 0 Calma 3 Oeste 0 -- -- 85
2020-10-11 04:00:00 -- 0 Calma 4 Sur 0 -- -- 86
2020-10-11 03:00:00 -- 0 Calma 3 Sudeste 0 -- -- 86
2020-10-11 02:00:00 -- 2 Sudeste 7 Sudeste 0 -- -- 87
2020-10-11 01:00:00 -- 3 Noroeste 4 Noroeste 0 -- -- 86
2020-10-11 00:00:00 -- 0 Calma 6 Nordeste 0 -- -- 86
2020-10-10 23:00:00 -- 0 Calma 5 Este 0 -- -- 86
2020-10-10 22:00:00 -- 3 Este 5 Este 0 -- -- 85
2020-10-10 21:00:00 -- 0 Calma 8 Oeste 0 -- -- 82
2020-10-10 20:00:00 -- 5 Noroeste 10 Oeste 0 -- -- 80
2020-10-10 19:00:00 -- 5 Sudoeste 8 Sudoeste 0 -- -- 79
2020-10-10 18:00:00 -- 5 Sudoeste 8 Sudoeste 0 -- -- 74
2020-10-10 17:00:00 -- 4 Sur 8 Sur 0 -- -- 76
2020-10-10 16:00:00 -- 3 Sudoeste 12 Sudoeste 0 -- -- 79
2020-10-10 15:00:00 -- 8 Sudoeste 13 Sur 0 -- -- 78
2020-10-10 14:00:00 -- 6 Sur 14 Sudeste 0 -- -- 78
2020-10-10 13:00:00 -- 7 Sur 17 Sur 0 -- -- 76
2020-10-10 12:00:00 -- 4 Sur 8 Sudoeste 0 -- -- 72
2020-10-10 11:00:00 -- 5 Sur 9 Sur 0 -- -- 78
2020-10-10 10:00:00 -- 0 Calma 6 Nordeste 0 -- -- 76
2020-10-10 09:00:00 -- 2 Nordeste 5 Nordeste 0 -- -- 88
2020-10-10 08:00:00 -- 0 Calma 3 Nordeste 0 -- -- 89
2020-10-10 07:00:00 -- 0 Calma 2 Noroeste 0 -- -- 88
2020-10-10 06:00:00 -- 0 Calma 3 Nordeste 0 -- -- 88
2020-10-10 05:00:00 -- 2 Norte 4 Nordeste 0 -- -- 88
2020-10-10 04:00:00 -- 2 Nordeste 4 Este 0 -- -- 88
2020-10-10 03:00:00 -- 0 Calma 2 Nordeste 0 -- -- 88
2020-10-10 02:00:00 -- 2 Norte 5 Noroeste 0 -- -- 87
2020-10-10 01:00:00 -- 0 Calma 3 Nordeste 0 -- -- 88
2020-10-10 00:00:00 -- 0 Calma 0 Calma 0 -- -- 86
2020-10-09 23:00:00 -- 0 Calma 4 Sudeste 0 -- -- 86
2020-10-09 22:00:00 -- 0 Calma 6 Nordeste 0 -- -- 84
2020-10-09 21:00:00 -- 2 Sudeste 5 Noroeste 0 -- -- 82
2020-10-09 20:00:00 -- 3 Norte 5 Noroeste 0 -- -- 79
2020-10-09 19:00:00 -- 2 Oeste 11 Sudoeste 0 -- -- 77
2020-10-09 18:00:00 -- 5 Sudoeste 12 Sudoeste 0 -- -- 75
2020-10-09 17:00:00 -- 6 Oeste 12 Oeste 0 -- -- 76
2020-10-09 16:00:00 -- 7 Sudoeste 15 Oeste 0 -- -- 76
2020-10-09 15:00:00 -- 7 Sudoeste 14 Sudoeste 0 -- -- 70
2020-10-09 14:00:00 -- 7 Sudoeste 15 Sur 0 -- -- 69
2020-10-09 13:00:00 -- 6 Sudoeste 15 Sudoeste 0 -- -- 72
2020-10-09 12:00:00 -- 7 Sudoeste 15 Sudoeste 0 -- -- 71
2020-10-09 11:00:00 -- 3 Oeste 10 Sudoeste 0 -- -- 60
2020-10-09 10:00:00 -- 0 Calma 5 Este 0 -- -- 70
2020-10-09 09:00:00 -- 0 Calma 6 Sudeste 0 -- -- 80
2020-10-09 08:00:00 -- 0 Calma 6 Oeste 0 -- -- 83
2020-10-09 07:00:00 -- 3 Sudeste 5 Este 0 -- -- 82
2020-10-09 06:00:00 -- 3 Sudoeste 5 Sudoeste 0 -- -- 80
2020-10-09 05:00:00 -- 0 Calma 4 Este 0 -- -- 80
2020-10-09 04:00:00 -- 0 Calma 3 Norte 0 -- -- 80
2020-10-09 03:00:00 -- 0 Calma 5 Noroeste 0 -- -- 77
2020-10-09 02:00:00 -- 0 Calma 3 Norte 0 -- -- 77
2020-10-09 01:00:00 -- 0 Calma 4 Norte 0 -- -- 78
2020-10-09 00:00:00 -- 0 Calma 3 Sudeste 0 -- -- 77
2020-10-08 23:00:00 -- 0 Calma 4 Nordeste 0 -- -- 75
2020-10-08 22:00:00 -- 0 Calma 3 Norte 0 -- -- 74
2020-10-08 21:00:00 -- 2 Este 6 Noroeste 0 -- -- 72
2020-10-08 20:00:00 -- 2 Noroeste 11 Noroeste 0 -- -- 68
2020-10-08 19:00:00 -- 7 Oeste 15 Oeste 0 -- -- 65
2020-10-08 18:00:00 -- 7 Oeste 18 Oeste 0 -- -- 58
2020-10-08 17:00:00 -- 8 Oeste 17 Oeste 0 -- -- 52
2020-10-08 16:00:00 -- 6 Sudoeste 15 Sudoeste 0 -- -- 52
2020-10-08 15:00:00 -- 6 Sudoeste 18 Sudoeste 0 -- -- 54
2020-10-08 14:00:00 -- 7 Oeste 18 Sudoeste 0 -- -- 52
2020-10-08 13:00:00 -- 6 Sudoeste 16 Oeste 0 -- -- 56
2020-10-08 12:00:00 -- 6 Sudoeste 14 Noroeste 0 -- -- 54
2020-10-08 11:00:00 -- 7 Oeste 13 Oeste 0 -- -- 50
2020-10-08 10:00:00 -- 2 Norte 5 Norte 0 -- -- 58
2020-10-08 09:00:00 -- 3 Oeste 7 Norte 0 -- -- 67
2020-10-08 08:00:00 -- 4 Nordeste 8 Este 0 -- -- 74
2020-10-08 07:00:00 -- 0 Calma 5 Norte 0 -- -- 73
2020-10-08 06:00:00 -- 4 Sudeste 8 Sudeste 0 -- -- 74
2020-10-08 05:00:00 -- 0 Calma 5 Noroeste 0 -- -- 70
2020-10-08 04:00:00 -- 2 Sudeste 8 Sudeste 0 -- -- 72
2020-10-08 03:00:00 -- 3 Norte 5 Norte 0 -- -- 69
2020-10-08 02:00:00 -- 0 Calma 3 Noroeste 0 -- -- 74
2020-10-08 01:00:00 -- 0 Calma 4 Noroeste 0 -- -- 75
2020-10-08 00:00:00 -- 0 Calma 4 Sur 0 -- -- 74
2020-10-07 23:00:00 -- 0 Calma 4 Este 0 -- -- 71
2020-10-07 22:00:00 -- 0 Calma 4 Nordeste 0 -- -- 69
2020-10-07 21:00:00 -- 0 Calma 6 Noroeste 0 -- -- 64
2020-10-07 20:00:00 -- 3 Noroeste 14 Sudoeste 0 -- -- 63
2020-10-07 19:00:00 -- 6 Sudoeste 8 Sudoeste 0 -- -- 58
2020-10-07 18:00:00 -- 4 Sudoeste 9 Sudoeste 0 -- -- 58
2020-10-07 17:00:00 -- 5 Sudoeste 10 Sudoeste 0 -- -- 66
2020-10-07 16:00:00 -- 6 Sur 10 Sudoeste 0 -- -- 67
2020-10-07 15:00:00 -- 6 Sudoeste 11 Sur 0 -- -- 69
2020-10-07 14:00:00 -- 7 Sudoeste 10 Sudoeste 0 -- -- 74
2020-10-07 13:00:00 -- 4 Sur 8 Sudoeste 0 -- -- 67
2020-10-07 12:00:00 -- 4 Sudoeste 14 Sudeste 0 -- -- 68
2020-10-07 11:00:00 -- 9 Sur 15 Sudeste 0 -- -- 74
2020-10-07 10:00:00 -- 4 Sudeste 9 Sudeste 0 -- -- 69
2020-10-07 09:00:00 -- 0 Calma 5 Norte 0 -- -- 78
2020-10-07 08:00:00 -- 2 Nordeste 5 Nordeste 0 -- -- 81
2020-10-07 07:00:00 -- 0 Calma 4 Noroeste 0 -- -- 84
2020-10-07 06:00:00 -- 0 Calma 5 Norte 0 -- -- 85
2020-10-07 05:00:00 -- 0 Calma 4 Norte 0 -- -- 86
2020-10-07 04:00:00 -- 0 Calma 5 Norte 0 -- -- 87
2020-10-07 03:00:00 -- 0 Calma 3 Sudeste 0 -- -- 88
2020-10-07 02:00:00 -- 0 Calma 2 Sur 0 -- -- 88
2020-10-07 01:00:00 -- 0 Calma 3 Norte 0 -- -- 87
2020-10-07 00:00:00 -- 0 Calma 3 Norte 0 -- -- 88
2020-10-06 23:00:00 -- 2 Sudeste 4 Sudeste 0 -- -- 88
2020-10-06 22:00:00 -- 3 Sudeste 5 Sudeste 0 -- -- 88
2020-10-06 21:00:00 -- 3 Noroeste 5 Noroeste 0 -- -- 86
2020-10-06 20:00:00 -- 2 Sur 7 Sur 0 -- -- 86
2020-10-06 19:00:00 -- 3 Sudoeste 8 Sur 0 -- -- 79
2020-10-06 18:00:00 -- 5 Sur 9 Sur 0 -- -- 76
2020-10-06 17:00:00 -- 4 Sudeste 9 Sur 0 -- -- 73
2020-10-06 16:00:00 -- 6 Sur 10 Sur 0 -- -- 69
2020-10-06 15:00:00 -- 5 Sudoeste 9 Sudoeste 0 -- -- 62
2020-10-06 14:00:00 -- 4 Sudoeste 11 Sur 0 -- -- 61
2020-10-06 13:00:00 -- 6 Sudoeste 18 Sur 0 -- -- 61
2020-10-06 12:00:00 -- 11 Sur 17 Sudeste 0 -- -- 64
2020-10-06 11:00:00 -- 3 Sudoeste 7 Sur 0 -- -- 56
2020-10-06 10:00:00 -- 0 Calma 4 Sudeste 0 -- -- 59
2020-10-06 09:00:00 -- 2 Sudeste 5 Sudeste 0 -- -- 69
2020-10-06 08:00:00 -- 0 Calma 4 Nordeste 0 -- -- 77
2020-10-06 07:00:00 -- 2 Norte 6 Noroeste 0 -- -- 74
2020-10-06 06:00:00 -- 0 Calma 5 Sudoeste 0 -- -- 75
2020-10-06 05:00:00 -- 0 Calma 5 Sudeste 0 -- -- 79
2020-10-06 04:00:00 -- 2 Noroeste 21 Sudeste 0 -- -- 77
2020-10-06 03:00:00 -- 12 Sudeste 22 Sudeste 0 -- -- 75
2020-10-06 02:00:00 -- 6 Sudeste 10 Sudeste 0 -- -- 65
2020-10-06 01:00:00 -- 2 Nordeste 17 Sudeste 0 -- -- 64
2020-10-06 00:00:00 -- 3 Este 15 Sudeste 0 -- -- 58
2020-10-05 23:00:00 -- 3 Norte 7 Sudeste 0 -- -- 76
2020-10-05 22:00:00 -- 0 Calma 7 Nordeste 0 -- -- 75
2020-10-05 21:00:00 -- 3 Nordeste 8 Este 0 -- -- 77
2020-10-05 20:00:00 -- 4 Sudeste 11 Sur 0 -- -- 76
2020-10-05 19:00:00 -- 5 Sudeste 9 Sur 0 -- -- 74
2020-10-05 18:00:00 -- 7 Sur 14 Oeste 0 -- -- 62
2020-10-05 17:00:00 -- 8 Oeste 18 Oeste 0 -- -- 49
2020-10-05 16:00:00 -- 5 Sur 13 Sudoeste 0 -- -- 55
2020-10-05 15:00:00 -- 8 Sudoeste 12 Sudoeste 0 -- -- 44
2020-10-05 14:00:00 -- 7 Sudoeste 13 Sudoeste 0 -- -- 48
2020-10-05 13:00:00 -- 8 Sudoeste 15 Sudoeste 0 -- -- 54
2020-10-05 12:00:00 -- 9 Sudoeste 26 Norte 0 -- -- 67
2020-10-05 11:00:00 -- 6 Sur 16 Norte 0 -- -- 59
2020-10-05 10:00:00 -- 5 Noroeste 13 Oeste 0 -- -- 47
2020-10-05 09:00:00 -- 7 Noroeste 32 Norte 0 -- -- 52
2020-10-05 08:00:00 -- 12 Norte 36 Norte 0 -- -- 54
2020-10-05 07:00:00 -- 14 Norte 32 Norte 0 -- -- 53
2020-10-05 06:00:00 -- 12 Norte 34 Norte 0 -- -- 54
2020-10-05 05:00:00 -- 9 Norte 23 Norte 0 -- -- 55
2020-10-05 04:00:00 -- 6 Sudoeste 10 Noroeste 0 -- -- 74
2020-10-05 03:00:00 -- 4 Oeste 9 Oeste 0 -- -- 75
2020-10-05 02:00:00 -- 3 Este 9 Sudeste 0 -- -- 77
2020-10-05 01:00:00 -- 3 Sur 17 Sudoeste 0 -- -- 73
2020-10-05 00:00:00 -- 5 Sudoeste 18 Sudoeste 0 -- -- 62
2020-10-04 23:00:00 -- 4 Nordeste 27 Noroeste 0 -- -- 46
2020-10-04 22:00:00 -- 8 Noroeste 25 Noroeste 0 -- -- 41
2020-10-04 21:00:00 -- 14 Noroeste 31 Oeste 0 -- -- 42
2020-10-04 20:00:00 -- 16 Oeste 49 Oeste 0 -- -- 73
2020-10-04 19:00:00 -- 24 Oeste 53 Oeste 0 -- -- 69
2020-10-04 18:00:00 -- 27 Oeste 46 Oeste 0 -- -- 64
2020-10-04 17:00:00 -- 21 Oeste 45 Oeste 0 -- -- 66
2020-10-04 16:00:00 -- 23 Oeste 44 Oeste 0 -- -- 60
2020-10-04 15:00:00 -- 29 Oeste 51 Oeste 0 -- -- 62
2020-10-04 14:00:00 -- 22 Oeste 45 Oeste 0 -- -- 56
2020-10-04 13:00:00 -- 22 Oeste 45 Oeste 0 -- -- 55
2020-10-04 12:00:00 -- 14 Oeste 26 Oeste 0 -- -- 54
2020-10-04 11:00:00 -- 9 Oeste 19 Noroeste 0 -- -- 39
2020-10-04 10:00:00 -- 6 Oeste 14 Oeste 0 -- -- 46
2020-10-04 09:00:00 -- 5 Noroeste 12 Noroeste 0 -- -- 45
2020-10-04 08:00:00 -- 7 Noroeste 13 Norte 0 -- -- 48
2020-10-04 07:00:00 -- 3 Noroeste 6 Noroeste 0 -- -- 49
2020-10-04 06:00:00 -- 4 Noroeste 8 Oeste 0 -- -- 54
2020-10-04 05:00:00 -- 3 Oeste 13 Oeste 0 -- -- 63
2020-10-04 04:00:00 -- 0 Calma 6 Norte 0 -- -- 68
2020-10-04 03:00:00 -- 3 Oeste 7 Oeste 0 -- -- 61
2020-10-04 02:00:00 -- 4 Sudoeste 8 Sudoeste 0 -- -- 63
2020-10-04 01:00:00 -- 3 Sudoeste 17 Oeste 0 -- -- 51
2020-10-04 00:00:00 -- 8 Oeste 32 Noroeste 0 -- -- 40
2020-10-03 23:00:00 -- 10 Noroeste 23 Noroeste 0 -- -- 32
2020-10-03 22:00:00 -- 12 Noroeste 30 Oeste 0 -- -- 35
2020-10-03 21:00:00 -- 12 Noroeste 20 Noroeste 0 -- -- 38
2020-10-03 20:00:00 -- 13 Oeste 45 Oeste 0 -- -- 59
2020-10-03 19:00:00 -- 25 Oeste 48 Oeste 0 -- -- 52
2020-10-03 18:00:00 -- 23 Oeste 44 Oeste 0 -- -- 57
2020-10-03 17:00:00 -- 25 Oeste 48 Oeste 0 -- -- 57
2020-10-03 16:00:00 -- 17 Oeste 41 Oeste 0 -- -- 53
2020-10-03 15:00:00 -- 21 Oeste 40 Oeste 0 -- -- 43
2020-10-03 14:00:00 -- 19 Oeste 35 Oeste 0 -- -- 43
2020-10-03 13:00:00 -- 15 Oeste 39 Sudoeste 0 -- -- 41
2020-10-03 12:00:00 -- 11 Oeste 25 Oeste 0 -- -- 50
2020-10-03 11:00:00 -- 10 Noroeste 23 Noroeste 0 -- -- 37
2020-10-03 10:00:00 -- 5 Nordeste 35 Noroeste 0 -- -- 43
2020-10-03 09:00:00 -- 20 Oeste 46 Noroeste 0 -- -- 48
2020-10-03 08:00:00 -- 27 Oeste 42 Noroeste 0 -- -- 49
2020-10-03 07:00:00 -- 24 Oeste 45 Noroeste 0 -- -- 50
2020-10-03 06:00:00 -- 17 Noroeste 46 Noroeste 0 -- -- 43
2020-10-03 05:00:00 -- 18 Noroeste 41 Noroeste 0 -- -- 45
2020-10-03 04:00:00 -- 19 Noroeste 40 Noroeste 0 -- -- 44
2020-10-03 03:00:00 -- 24 Noroeste 41 Noroeste 0 -- -- 44
2020-10-03 02:00:00 -- 28 Noroeste 48 Noroeste 0 -- -- 46
2020-10-03 01:00:00 -- 20 Noroeste 39 Noroeste 0 -- -- 46
2020-10-03 00:00:00 -- 25 Noroeste 62 Noroeste 0 -- -- 45
2020-10-02 23:00:00 -- 29 Noroeste 64 Noroeste 0 -- -- 42
2020-10-02 22:00:00 -- 24 Noroeste 60 Noroeste 0 -- -- 48
2020-10-02 21:00:00 -- 19 Oeste 53 Oeste 0 -- -- 86
2020-10-02 20:00:00 -- 26 Oeste 54 Oeste 0 -- -- 92
2020-10-02 19:00:00 -- 29 Oeste 53 Oeste 0.2 -- -- 90
2020-10-02 18:00:00 -- 30 Oeste 61 Oeste 0 -- -- 79
2020-10-02 17:00:00 -- 32 Oeste 57 Oeste 0 -- -- 75
2020-10-02 16:00:00 -- 27 Oeste 55 Oeste 0 -- -- 76
2020-10-02 15:00:00 -- 29 Oeste 51 Oeste 0 -- -- 72
2020-10-02 14:00:00 -- 18 Oeste 54 Oeste 0 -- -- 71
2020-10-02 13:00:00 -- 29 Oeste 55 Oeste 0 -- -- 71
2020-10-02 12:00:00 -- 24 Oeste 41 Oeste 0 -- -- 59
2020-10-02 11:00:00 -- 10 Oeste 37 Oeste 0 -- -- 63
2020-10-02 10:00:00 -- 18 Oeste 33 Oeste 0 -- -- 60
2020-10-02 09:00:00 -- 14 Oeste 28 Oeste 0 -- -- 57
2020-10-02 08:00:00 -- 13 Oeste 35 Oeste 0 -- -- 62
2020-10-02 07:00:00 -- 19 Oeste 37 Oeste 0 -- -- 70
2020-10-02 06:00:00 -- 16 Oeste 26 Oeste 0 -- -- 73
2020-10-02 05:00:00 -- 11 Oeste 24 Oeste 0 -- -- 64
2020-10-02 04:00:00 -- 15 Oeste 30 Oeste 0 -- -- 69
2020-10-02 03:00:00 -- 21 Oeste 35 Oeste 0 -- -- 70
2020-10-02 02:00:00 -- 6 Oeste 20 Oeste 0 -- -- 62
2020-10-02 01:00:00 -- 3 Noroeste 17 Oeste 0 -- -- 64
2020-10-02 00:00:00 -- 4 Este 16 Oeste 0 -- -- 78
2020-10-01 23:00:00 -- 7 Noroeste 18 Noroeste 0 -- -- 74
2020-10-01 22:00:00 -- 4 Noroeste 21 Noroeste 0 -- -- 73
2020-10-01 21:00:00 -- 7 Noroeste 32 Oeste 0 -- -- 73
2020-10-01 20:00:00 -- 24 Oeste 44 Oeste 0 -- -- 72
2020-10-01 19:00:00 -- 26 Oeste 48 Oeste 0 -- -- 64
2020-10-01 18:00:00 -- 25 Oeste 53 Oeste 0 -- -- 62
2020-10-01 17:00:00 -- 30 Oeste 53 Oeste 0 -- -- 62
2020-10-01 16:00:00 -- 22 Oeste 43 Oeste 0 -- -- 62
2020-10-01 15:00:00 -- 12 Oeste 27 Sudoeste 0 -- -- 65
2020-10-01 14:00:00 -- 7 Sudoeste 19 Oeste 0 -- -- 72
2020-10-01 13:00:00 -- 5 Sur 8 Sudoeste 0 -- -- 85
2020-10-01 12:00:00 -- 5 Sudoeste 11 Sudoeste 0 -- -- 86
2020-10-01 11:00:00 -- 3 Este 6 Sudoeste 0 -- -- 92
2020-10-01 10:00:00 -- 4 Sudoeste 7 Sudoeste 0 -- -- 89
2020-10-01 09:00:00 -- 2 Norte 6 Nordeste 0 -- -- 91
2020-10-01 08:00:00 -- 3 Nordeste 5 Nordeste 0 -- -- 91
2020-10-01 07:00:00 -- 0 Calma 5 Oeste 0 -- -- 90
2020-10-01 06:00:00 -- 2 Noroeste 8 Noroeste 0 -- -- 89
2020-10-01 05:00:00 -- 2 Norte 6 Noroeste 0 -- -- 88
2020-10-01 04:00:00 -- 3 Norte 5 Norte 0 -- -- 89
2020-10-01 03:00:00 -- 2 Norte 5 Norte 0 -- -- 89
2020-10-01 02:00:00 -- 4 Nordeste 8 Nordeste 0 -- -- 89
2020-10-01 01:00:00 -- 0 Calma 4 Norte 0 -- -- 90
2020-10-01 00:00:00 -- 0 Calma 8 Oeste 0 -- -- 89
2020-09-30 23:00:00 -- 0 Calma 11 Oeste 0 -- -- 89
2020-09-30 22:00:00 -- 5 Sudoeste 9 Sudoeste 0 -- -- 88
2020-09-30 21:00:00 -- 4 Oeste 8 Oeste 0 -- -- 86
2020-09-30 20:00:00 -- 5 Oeste 12 Oeste 0 -- -- 84
2020-09-30 19:00:00 -- 5 Sudoeste 10 Sudoeste 0 -- -- 81
2020-09-30 18:00:00 -- 5 Sudoeste 13 Sudoeste 0 -- -- 74
2020-09-30 17:00:00 -- 8 Sudoeste 14 Sudoeste 0 -- -- 73
2020-09-30 16:00:00 -- 7 Sudoeste 13 Sur 0 -- -- 69
2020-09-30 15:00:00 -- 8 Sudoeste 13 Sudoeste 0 -- -- 69
2020-09-30 14:00:00 -- 7 Sudoeste 11 Sudoeste 0 -- -- 69
2020-09-30 13:00:00 -- 6 Sudoeste 13 Sudoeste 0 -- -- 65
2020-09-30 12:00:00 -- 5 Sudoeste 9 Sudoeste 0 -- -- 67
2020-09-30 11:00:00 -- 3 Sudeste 4 Sudeste 0 -- -- 67
2020-09-30 10:00:00 -- 0 Calma 4 Sudeste 0 -- -- 73
2020-09-30 09:00:00 -- 2 Este 4 Sudeste 0 -- -- 79
2020-09-30 08:00:00 -- 0 Calma 6 Norte 0 -- -- 77
2020-09-30 07:00:00 -- 0 Calma 5 Noroeste 0 -- -- 81
2020-09-30 06:00:00 -- 0 Calma 3 Oeste 0 -- -- 83
2020-09-30 05:00:00 -- 0 Calma 3 Sudeste 0 -- -- 86
2020-09-30 04:00:00 -- 0 Calma 3 Norte 0 -- -- 85
2020-09-30 03:00:00 -- 0 Calma 5 Norte 0 -- -- 85
2020-09-30 02:00:00 -- 0 Calma 4 Sudeste 0 -- -- 85
2020-09-30 01:00:00 -- 2 Este 4 Este 0 -- -- 83
2020-09-30 00:00:00 -- 0 Calma 3 Nordeste 0 -- -- 82